sensor_id;sensor_type;location;lat;lon;timestamp;pressure;altitude;pressure_sealevel;temperature;humidity
23427;BME280;41148;45.420;10.952;2023-01-29T00:02:17;101580.00;;;1.70;69.78
23427;BME280;41148;45.420;10.952;2023-01-29T00:04:45;101588.75;;;1.71;70.15
23427;BME280;41148;45.420;10.952;2023-01-29T00:07:12;101587.31;;;1.84;69.66
23427;BME280;41148;45.420;10.952;2023-01-29T00:09:40;101575.16;;;1.90;69.07
23427;BME280;41148;45.420;10.952;2023-01-29T00:12:07;101578.94;;;1.64;70.25
23427;BME280;41148;45.420;10.952;2023-01-29T00:14:35;101587.63;;;1.60;70.00
23427;BME280;41148;45.420;10.952;2023-01-29T00:17:02;101583.84;;;1.47;70.65
23427;BME280;41148;45.420;10.952;2023-01-29T00:19:30;101583.84;;;1.47;71.12
23427;BME280;41148;45.420;10.952;2023-01-29T00:21:57;101574.50;;;1.60;70.81
23427;BME280;41148;45.420;10.952;2023-01-29T00:24:24;101577.53;;;1.39;70.84
23427;BME280;41148;45.420;10.952;2023-01-29T00:26:52;101576.44;;;1.31;71.34
23427;BME280;41148;45.420;10.952;2023-01-29T00:29:19;101594.09;;;1.36;71.01
23427;BME280;41148;45.420;10.952;2023-01-29T00:31:48;101592.84;;;1.58;70.37
23427;BME280;41148;45.420;10.952;2023-01-29T00:34:16;101583.75;;;1.44;70.49
23427;BME280;41148;45.420;10.952;2023-01-29T00:36:43;101595.13;;;1.44;70.55
23427;BME280;41148;45.420;10.952;2023-01-29T00:39:12;101592.38;;;1.38;70.81
23427;BME280;41148;45.420;10.952;2023-01-29T00:41:39;101588.53;;;1.62;70.08
23427;BME280;41148;45.420;10.952;2023-01-29T00:44:25;101580.38;;;1.48;70.35
23427;BME280;41148;45.420;10.952;2023-01-29T00:47:11;101592.56;;;1.46;70.81
23427;BME280;41148;45.420;10.952;2023-01-29T00:49:57;101592.22;;;1.68;69.83
23427;BME280;41148;45.420;10.952;2023-01-29T00:52:25;101595.53;;;1.61;70.03
23427;BME280;41148;45.420;10.952;2023-01-29T00:54:55;101593.56;;;1.51;70.24
23427;BME280;41148;45.420;10.952;2023-01-29T00:57:24;101594.38;;;1.49;70.80
23427;BME280;41148;45.420;10.952;2023-01-29T00:59:53;101595.03;;;1.40;71.04
23427;BME280;41148;45.420;10.952;2023-01-29T01:02:21;101596.31;;;1.56;70.42
23427;BME280;41148;45.420;10.952;2023-01-29T01:05:27;101598.03;;;1.55;70.44
23427;BME280;41148;45.420;10.952;2023-01-29T01:07:56;101597.41;;;1.65;70.18
23427;BME280;41148;45.420;10.952;2023-01-29T01:10:32;101603.72;;;1.36;70.56
23427;BME280;41148;45.420;10.952;2023-01-29T01:13:02;101599.03;;;1.24;71.58
23427;BME280;41148;45.420;10.952;2023-01-29T01:15:34;101598.06;;;1.21;71.21
23427;BME280;41148;45.420;10.952;2023-01-29T01:18:03;101600.78;;;1.25;71.52
23427;BME280;41148;45.420;10.952;2023-01-29T01:20:33;101599.03;;;1.24;71.24
23427;BME280;41148;45.420;10.952;2023-01-29T01:23:02;101602.72;;;1.32;70.90
23427;BME280;41148;45.420;10.952;2023-01-29T01:25:29;101616.16;;;1.44;71.11
23427;BME280;41148;45.420;10.952;2023-01-29T01:27:58;101595.88;;;1.37;69.88
23427;BME280;41148;45.420;10.952;2023-01-29T01:30:29;101602.28;;;1.50;70.01
23427;BME280;41148;45.420;10.952;2023-01-29T01:32:58;101604.91;;;1.50;69.82
23427;BME280;41148;45.420;10.952;2023-01-29T01:35:25;101618.28;;;1.61;69.68
23427;BME280;41148;45.420;10.952;2023-01-29T01:37:52;101605.72;;;1.46;70.02
23427;BME280;41148;45.420;10.952;2023-01-29T01:40:23;101610.91;;;1.44;69.47
23427;BME280;41148;45.420;10.952;2023-01-29T01:42:56;101599.84;;;1.22;70.82
23427;BME280;41148;45.420;10.952;2023-01-29T01:45:33;101603.75;;;1.37;70.21
23427;BME280;41148;45.420;10.952;2023-01-29T01:48:30;101612.84;;;1.53;70.12
23427;BME280;41148;45.420;10.952;2023-01-29T01:50:59;101599.78;;;1.19;70.80
23427;BME280;41148;45.420;10.952;2023-01-29T01:53:40;101604.38;;;1.27;70.81
23427;BME280;41148;45.420;10.952;2023-01-29T01:56:16;101604.63;;;1.38;70.53
23427;BME280;41148;45.420;10.952;2023-01-29T01:58:50;101612.25;;;1.27;70.87
23427;BME280;41148;45.420;10.952;2023-01-29T02:01:21;101607.25;;;1.38;70.73
23427;BME280;41148;45.420;10.952;2023-01-29T02:04:00;101594.66;;;1.25;71.50
23427;BME280;41148;45.420;10.952;2023-01-29T02:06:48;101595.78;;;1.34;70.78
23427;BME280;41148;45.420;10.952;2023-01-29T02:09:43;101600.13;;;1.34;70.85
23427;BME280;41148;45.420;10.952;2023-01-29T02:12:14;101597.00;;;1.12;71.64
23427;BME280;41148;45.420;10.952;2023-01-29T02:14:42;101598.66;;;1.09;71.84
23427;BME280;41148;45.420;10.952;2023-01-29T02:17:13;101596.78;;;1.05;72.08
23427;BME280;41148;45.420;10.952;2023-01-29T02:36:45;101628.34;;;1.06;72.32
23427;BME280;41148;45.420;10.952;2023-01-29T02:39:28;101626.09;;;1.22;71.66
23427;BME280;41148;45.420;10.952;2023-01-29T02:42:14;101617.19;;;1.15;71.55
23427;BME280;41148;45.420;10.952;2023-01-29T02:44:49;101633.16;;;1.24;71.19
23427;BME280;41148;45.420;10.952;2023-01-29T02:47:35;101632.78;;;1.09;71.79
23427;BME280;41148;45.420;10.952;2023-01-29T02:50:15;101632.47;;;0.97;72.21
23427;BME280;41148;45.420;10.952;2023-01-29T02:52:59;101634.38;;;1.04;72.37
23427;BME280;41148;45.420;10.952;2023-01-29T02:55:43;101625.53;;;0.99;72.40
23427;BME280;41148;45.420;10.952;2023-01-29T02:58:18;101629.09;;;1.02;72.51
23427;BME280;41148;45.420;10.952;2023-01-29T03:00:48;101609.22;;;1.12;72.05
23427;BME280;41148;45.420;10.952;2023-01-29T03:03:19;101612.97;;;1.22;71.78
23427;BME280;41148;45.420;10.952;2023-01-29T03:06:12;101616.91;;;1.39;71.02
23427;BME280;41148;45.420;10.952;2023-01-29T03:08:51;101605.22;;;1.26;71.28
23427;BME280;41148;45.420;10.952;2023-01-29T03:11:20;101602.22;;;1.11;71.95
23427;BME280;41148;45.420;10.952;2023-01-29T03:16:28;101620.38;;;1.38;71.49
23427;BME280;41148;45.420;10.952;2023-01-29T03:19:20;101620.16;;;1.29;72.33
23427;BME280;41148;45.420;10.952;2023-01-29T03:21:54;101629.19;;;1.40;72.10
23427;BME280;41148;45.420;10.952;2023-01-29T03:24:46;101621.97;;;1.31;72.17
23427;BME280;41148;45.420;10.952;2023-01-29T03:27:42;101633.66;;;1.09;72.62
23427;BME280;41148;45.420;10.952;2023-01-29T03:30:49;101640.09;;;1.22;72.41
23427;BME280;41148;45.420;10.952;2023-01-29T03:33:48;101635.91;;;1.29;72.71
23427;BME280;41148;45.420;10.952;2023-01-29T03:36:21;101640.00;;;1.18;72.86
23427;BME280;41148;45.420;10.952;2023-01-29T03:38:54;101642.41;;;1.08;72.33
23427;BME280;41148;45.420;10.952;2023-01-29T03:41:25;101645.00;;;1.07;72.92
23427;BME280;41148;45.420;10.952;2023-01-29T03:44:17;101634.97;;;0.92;73.24
23427;BME280;41148;45.420;10.952;2023-01-29T03:46:57;101645.81;;;1.06;72.96
23427;BME280;41148;45.420;10.952;2023-01-29T03:55:16;101619.78;;;1.15;72.48
23427;BME280;41148;45.420;10.952;2023-01-29T03:57:59;101649.44;;;1.11;72.94
23427;BME280;41148;45.420;10.952;2023-01-29T04:00:34;101652.00;;;1.08;73.35
23427;BME280;41148;45.420;10.952;2023-01-29T04:03:25;101649.09;;;1.32;72.54
23427;BME280;41148;45.420;10.952;2023-01-29T04:06:02;101644.75;;;1.32;72.45
23427;BME280;41148;45.420;10.952;2023-01-29T04:11:37;101649.59;;;1.52;71.72
23427;BME280;41148;45.420;10.952;2023-01-29T04:14:08;101646.28;;;1.59;71.49
23427;BME280;41148;45.420;10.952;2023-01-29T04:16:38;101640.56;;;1.77;70.96
23427;BME280;41148;45.420;10.952;2023-01-29T04:19:27;101643.03;;;1.70;70.77
23427;BME280;41148;45.420;10.952;2023-01-29T04:22:20;101637.81;;;1.72;70.99
23427;BME280;41148;45.420;10.952;2023-01-29T04:24:50;101648.41;;;1.75;70.91
23427;BME280;41148;45.420;10.952;2023-01-29T04:30:04;101636.28;;;1.82;70.99
23427;BME280;41148;45.420;10.952;2023-01-29T04:38:46;101639.66;;;1.75;71.61
23427;BME280;41148;45.420;10.952;2023-01-29T04:44:25;101646.69;;;1.77;71.27
23427;BME280;41148;45.420;10.952;2023-01-29T04:47:05;101637.13;;;1.81;70.90
23427;BME280;41148;45.420;10.952;2023-01-29T04:49:44;101644.13;;;1.80;70.67
23427;BME280;41148;45.420;10.952;2023-01-29T04:52:20;101639.06;;;1.88;70.63
23427;BME280;41148;45.420;10.952;2023-01-29T04:57:42;101636.25;;;1.80;70.68
23427;BME280;41148;45.420;10.952;2023-01-29T05:00:18;101637.09;;;1.79;70.72
23427;BME280;41148;45.420;10.952;2023-01-29T05:02:47;101642.94;;;1.66;71.21
23427;BME280;41148;45.420;10.952;2023-01-29T05:05:17;101650.84;;;1.67;71.07
23427;BME280;41148;45.420;10.952;2023-01-29T05:07:46;101636.81;;;1.29;72.33
23427;BME280;41148;45.420;10.952;2023-01-29T05:10:17;101658.22;;;1.11;73.63
23427;BME280;41148;45.420;10.952;2023-01-29T05:12:48;101657.72;;;1.26;73.36
23427;BME280;41148;45.420;10.952;2023-01-29T05:15:22;101648.00;;;1.22;73.27
23427;BME280;41148;45.420;10.952;2023-01-29T05:17:51;101633.53;;;1.39;72.54
23427;BME280;41148;45.420;10.952;2023-01-29T05:20:20;101642.34;;;1.41;72.75
23427;BME280;41148;45.420;10.952;2023-01-29T05:22:48;101638.00;;;1.43;72.07
23427;BME280;41148;45.420;10.952;2023-01-29T05:25:22;101638.91;;;1.44;72.26
23427;BME280;41148;45.420;10.952;2023-01-29T05:27:51;101650.00;;;1.68;71.41
23427;BME280;41148;45.420;10.952;2023-01-29T05:30:38;101658.72;;;1.66;71.35
23427;BME280;41148;45.420;10.952;2023-01-29T05:33:19;101648.03;;;1.60;71.35
23427;BME280;41148;45.420;10.952;2023-01-29T05:35:47;101651.56;;;1.60;70.91
23427;BME280;41148;45.420;10.952;2023-01-29T05:38:16;101651.53;;;1.59;71.48
23427;BME280;41148;45.420;10.952;2023-01-29T05:40:44;101659.34;;;1.56;71.93
23427;BME280;41148;45.420;10.952;2023-01-29T05:43:18;101647.94;;;1.55;71.46
23427;BME280;41148;45.420;10.952;2023-01-29T05:45:59;101654.09;;;1.56;71.25
23427;BME280;41148;45.420;10.952;2023-01-29T05:48:28;101651.31;;;1.50;72.02
23427;BME280;41148;45.420;10.952;2023-01-29T05:51:01;101658.06;;;1.40;71.88
23427;BME280;41148;45.420;10.952;2023-01-29T05:53:30;101650.56;;;1.21;72.52
23427;BME280;41148;45.420;10.952;2023-01-29T05:56:00;101662.09;;;1.26;72.47
23427;BME280;41148;45.420;10.952;2023-01-29T05:58:29;101666.50;;;1.27;72.36
23427;BME280;41148;45.420;10.952;2023-01-29T06:00:57;101680.50;;;1.27;72.33
23427;BME280;41148;45.420;10.952;2023-01-29T06:03:33;101659.94;;;1.11;72.41
23427;BME280;41148;45.420;10.952;2023-01-29T06:06:01;101686.91;;;1.05;73.29
23427;BME280;41148;45.420;10.952;2023-01-29T06:08:28;101673.50;;;0.95;73.55
23427;BME280;41148;45.420;10.952;2023-01-29T06:10:56;101662.56;;;1.11;72.86
23427;BME280;41148;45.420;10.952;2023-01-29T06:13:23;101671.38;;;1.13;72.92
23427;BME280;41148;45.420;10.952;2023-01-29T06:15:51;101674.84;;;1.12;72.58
23427;BME280;41148;45.420;10.952;2023-01-29T06:18:18;101674.81;;;1.10;72.40
23427;BME280;41148;45.420;10.952;2023-01-29T06:20:46;101683.84;;;1.22;72.23
23427;BME280;41148;45.420;10.952;2023-01-29T06:23:13;101670.44;;;1.11;72.54
23427;BME280;41148;45.420;10.952;2023-01-29T06:25:40;101692.38;;;1.13;72.50
23427;BME280;41148;45.420;10.952;2023-01-29T06:28:08;101687.13;;;1.13;72.74
23427;BME280;41148;45.420;10.952;2023-01-29T06:30:35;101696.13;;;1.23;72.99
23427;BME280;41148;45.420;10.952;2023-01-29T06:33:03;101688.38;;;0.94;73.30
23427;BME280;41148;45.420;10.952;2023-01-29T06:35:30;101689.59;;;1.07;73.19
23427;BME280;41148;45.420;10.952;2023-01-29T06:37:57;101692.69;;;0.92;73.71
23427;BME280;41148;45.420;10.952;2023-01-29T06:40:25;101703.97;;;0.88;73.64
23427;BME280;41148;45.420;10.952;2023-01-29T06:42:52;101702.97;;;0.84;74.37
23427;BME280;41148;45.420;10.952;2023-01-29T06:45:19;101717.72;;;0.79;74.68
23427;BME280;41148;45.420;10.952;2023-01-29T06:47:47;101708.72;;;0.71;75.38
23427;BME280;41148;45.420;10.952;2023-01-29T06:50:14;101710.75;;;0.81;74.97
23427;BME280;41148;45.420;10.952;2023-01-29T06:52:43;101716.22;;;0.89;74.82
23427;BME280;41148;45.420;10.952;2023-01-29T06:55:10;101711.72;;;0.85;74.49
23427;BME280;41148;45.420;10.952;2023-01-29T06:57:38;101726.13;;;0.99;74.23
23427;BME280;41148;45.420;10.952;2023-01-29T07:00:06;101720.41;;;0.82;74.73
23427;BME280;41148;45.420;10.952;2023-01-29T07:02:33;101730.56;;;1.02;74.40
23427;BME280;41148;45.420;10.952;2023-01-29T07:05:01;101725.88;;;1.23;73.71
23427;BME280;41148;45.420;10.952;2023-01-29T07:07:28;101723.53;;;1.34;73.57
23427;BME280;41148;45.420;10.952;2023-01-29T07:09:55;101734.50;;;1.18;74.10
23427;BME280;41148;45.420;10.952;2023-01-29T07:12:23;101737.47;;;0.98;74.90
23427;BME280;41148;45.420;10.952;2023-01-29T07:14:50;101737.59;;;1.03;74.27
23427;BME280;41148;45.420;10.952;2023-01-29T07:17:17;101741.38;;;1.14;74.09
23427;BME280;41148;45.420;10.952;2023-01-29T07:19:46;101744.22;;;1.22;73.33
23427;BME280;41148;45.420;10.952;2023-01-29T07:22:14;101746.09;;;1.26;73.77
23427;BME280;41148;45.420;10.952;2023-01-29T07:24:42;101760.72;;;1.16;73.95
23427;BME280;41148;45.420;10.952;2023-01-29T07:27:09;101764.22;;;0.86;74.39
23427;BME280;41148;45.420;10.952;2023-01-29T07:29:37;101771.41;;;0.92;74.26
23427;BME280;41148;45.420;10.952;2023-01-29T07:32:04;101771.75;;;1.04;74.26
23427;BME280;41148;45.420;10.952;2023-01-29T07:34:32;101782.22;;;1.04;74.17
23427;BME280;41148;45.420;10.952;2023-01-29T07:36:59;101774.28;;;1.01;74.03
23427;BME280;41148;45.420;10.952;2023-01-29T07:39:26;101777.97;;;1.08;73.89
23427;BME280;41148;45.420;10.952;2023-01-29T07:41:54;101780.44;;;1.02;74.09
23427;BME280;41148;45.420;10.952;2023-01-29T07:44:22;101781.19;;;0.98;74.28
23427;BME280;41148;45.420;10.952;2023-01-29T07:46:49;101778.09;;;1.12;74.05
23427;BME280;41148;45.420;10.952;2023-01-29T07:49:17;101787.97;;;1.21;74.03
23427;BME280;41148;45.420;10.952;2023-01-29T07:51:44;101795.03;;;1.24;73.57
23427;BME280;41148;45.420;10.952;2023-01-29T07:54:11;101793.50;;;1.32;73.06
23427;BME280;41148;45.420;10.952;2023-01-29T07:56:39;101792.44;;;1.25;73.38
23427;BME280;41148;45.420;10.952;2023-01-29T07:59:06;101809.84;;;1.22;73.14
23427;BME280;41148;45.420;10.952;2023-01-29T08:01:33;101816.16;;;1.28;72.43
23427;BME280;41148;45.420;10.952;2023-01-29T08:04:01;101822.28;;;1.27;72.82
23427;BME280;41148;45.420;10.952;2023-01-29T08:06:28;101803.19;;;1.34;72.60
23427;BME280;41148;45.420;10.952;2023-01-29T08:08:56;101805.09;;;1.40;72.17
23427;BME280;41148;45.420;10.952;2023-01-29T08:11:23;101816.81;;;1.53;71.85
23427;BME280;41148;45.420;10.952;2023-01-29T08:13:51;101801.72;;;1.77;71.86
23427;BME280;41148;45.420;10.952;2023-01-29T08:16:18;101814.31;;;1.90;71.19
23427;BME280;41148;45.420;10.952;2023-01-29T08:18:46;101809.41;;;2.04;70.68
23427;BME280;41148;45.420;10.952;2023-01-29T08:21:14;101807.63;;;2.03;70.65
23427;BME280;41148;45.420;10.952;2023-01-29T08:23:42;101816.53;;;2.10;70.22
23427;BME280;41148;45.420;10.952;2023-01-29T08:26:10;101807.66;;;2.05;70.48
23427;BME280;41148;45.420;10.952;2023-01-29T08:28:37;101820.28;;;2.19;70.42
23427;BME280;41148;45.420;10.952;2023-01-29T08:31:12;101821.53;;;2.35;70.12
23427;BME280;41148;45.420;10.952;2023-01-29T08:33:40;101821.84;;;2.49;70.11
23427;BME280;41148;45.420;10.952;2023-01-29T08:36:08;101817.50;;;2.51;69.97
23427;BME280;41148;45.420;10.952;2023-01-29T08:38:36;101815.16;;;2.62;69.38
23427;BME280;41148;45.420;10.952;2023-01-29T08:41:03;101819.81;;;2.75;68.85
23427;BME280;41148;45.420;10.952;2023-01-29T08:43:31;101812.22;;;2.88;69.04
23427;BME280;41148;45.420;10.952;2023-01-29T08:45:58;101803.69;;;3.00;67.94
23427;BME280;41148;45.420;10.952;2023-01-29T08:48:26;101805.59;;;3.07;67.52
23427;BME280;41148;45.420;10.952;2023-01-29T08:50:56;101817.56;;;3.35;67.13
23427;BME280;41148;45.420;10.952;2023-01-29T08:53:24;101806.31;;;3.44;67.00
23427;BME280;41148;45.420;10.952;2023-01-29T08:55:52;101807.47;;;4.10;65.16
23427;BME280;41148;45.420;10.952;2023-01-29T08:58:19;101799.03;;;5.74;59.68
23427;BME280;41148;45.420;10.952;2023-01-29T09:00:48;101807.75;;;6.74;56.22
23427;BME280;41148;45.420;10.952;2023-01-29T09:03:15;101808.00;;;7.27;54.39
23427;BME280;41148;45.420;10.952;2023-01-29T09:05:43;101795.50;;;6.88;55.22
23427;BME280;41148;45.420;10.952;2023-01-29T09:08:10;101805.66;;;6.24;56.77
23427;BME280;41148;45.420;10.952;2023-01-29T09:10:38;101820.22;;;5.76;57.70
23427;BME280;41148;45.420;10.952;2023-01-29T09:13:05;101839.44;;;5.60;58.79
23427;BME280;41148;45.420;10.952;2023-01-29T09:15:32;101826.94;;;5.43;59.71
23427;BME280;41148;45.420;10.952;2023-01-29T09:18:03;101817.16;;;5.38;60.34
23427;BME280;41148;45.420;10.952;2023-01-29T09:20:31;101835.50;;;5.23;60.40
23427;BME280;41148;45.420;10.952;2023-01-29T09:23:04;101829.50;;;5.37;60.78
23427;BME280;41148;45.420;10.952;2023-01-29T09:25:31;101836.63;;;5.44;60.59
23427;BME280;41148;45.420;10.952;2023-01-29T09:27:59;101845.63;;;5.60;60.13
23427;BME280;41148;45.420;10.952;2023-01-29T09:30:26;101834.97;;;5.53;60.54
23427;BME280;41148;45.420;10.952;2023-01-29T09:32:54;101842.84;;;5.50;60.71
23427;BME280;41148;45.420;10.952;2023-01-29T09:35:22;101846.59;;;5.70;60.18
23427;BME280;41148;45.420;10.952;2023-01-29T09:37:50;101842.16;;;5.69;60.54
23427;BME280;41148;45.420;10.952;2023-01-29T09:43:17;101841.44;;;5.82;58.65
23427;BME280;41148;45.420;10.952;2023-01-29T09:45:53;101840.38;;;5.66;59.26
23427;BME280;41148;45.420;10.952;2023-01-29T09:48:27;101845.03;;;5.89;58.40
23427;BME280;41148;45.420;10.952;2023-01-29T09:50:57;101836.94;;;5.75;59.06
23427;BME280;41148;45.420;10.952;2023-01-29T09:53:44;101836.94;;;5.73;59.22
23427;BME280;41148;45.420;10.952;2023-01-29T09:56:20;101830.00;;;5.88;58.69
23427;BME280;41148;45.420;10.952;2023-01-29T09:58:48;101836.16;;;5.84;58.83
23427;BME280;41148;45.420;10.952;2023-01-29T10:09:18;101827.47;;;5.94;59.94
23427;BME280;41148;45.420;10.952;2023-01-29T10:15:03;101820.66;;;6.19;57.84
23427;BME280;41148;45.420;10.952;2023-01-29T10:25:26;101804.84;;;6.31;58.91
23427;BME280;41148;45.420;10.952;2023-01-29T10:27:57;101810.00;;;6.11;58.82
23427;BME280;41148;45.420;10.952;2023-01-29T10:30:36;101797.56;;;6.04;58.94
23427;BME280;41148;45.420;10.952;2023-01-29T10:33:11;101797.66;;;6.13;59.22
23427;BME280;41148;45.420;10.952;2023-01-29T10:35:48;101795.16;;;6.31;58.71
23427;BME280;41148;45.420;10.952;2023-01-29T10:43:44;101776.69;;;6.39;59.66
23427;BME280;41148;45.420;10.952;2023-01-29T10:49:17;101781.03;;;6.32;60.18
23427;BME280;41148;45.420;10.952;2023-01-29T10:51:59;101770.44;;;6.32;60.07
23427;BME280;41148;45.420;10.952;2023-01-29T10:57:53;101770.50;;;6.42;59.87
23427;BME280;41148;45.420;10.952;2023-01-29T11:00:27;101761.69;;;6.38;60.12
23427;BME280;41148;45.420;10.952;2023-01-29T11:03:23;101763.56;;;6.60;58.82
23427;BME280;41148;45.420;10.952;2023-01-29T11:06:03;101754.63;;;6.46;58.70
23427;BME280;41148;45.420;10.952;2023-01-29T11:11:46;101743.22;;;6.52;58.30
23427;BME280;41148;45.420;10.952;2023-01-29T11:14:20;101725.50;;;6.39;58.83
23427;BME280;41148;45.420;10.952;2023-01-29T11:16:50;101723.81;;;6.53;59.39
23427;BME280;41148;45.420;10.952;2023-01-29T11:19:17;101719.44;;;6.63;58.42
23427;BME280;41148;45.420;10.952;2023-01-29T11:22:01;101709.69;;;6.51;58.74
23427;BME280;41148;45.420;10.952;2023-01-29T11:24:30;101718.59;;;6.74;58.87
23427;BME280;41148;45.420;10.952;2023-01-29T11:26:58;101709.81;;;6.83;57.66
23427;BME280;41148;45.420;10.952;2023-01-29T11:31:57;101690.41;;;6.95;57.80
23427;BME280;41148;45.420;10.952;2023-01-29T11:34:25;101699.22;;;6.80;58.32
23427;BME280;41148;45.420;10.952;2023-01-29T11:37:01;101670.03;;;6.68;58.31
23427;BME280;41148;45.420;10.952;2023-01-29T11:39:30;101678.88;;;6.71;59.25
23427;BME280;41148;45.420;10.952;2023-01-29T11:42:00;101674.50;;;6.90;59.06
23427;BME280;41148;45.420;10.952;2023-01-29T11:44:31;101670.13;;;7.13;58.15
23427;BME280;41148;45.420;10.952;2023-01-29T11:47:22;101667.47;;;7.00;58.93
23427;BME280;41148;45.420;10.952;2023-01-29T11:49:57;101663.06;;;6.99;59.19
23427;BME280;41148;45.420;10.952;2023-01-29T11:52:34;101664.81;;;6.98;59.00
23427;BME280;41148;45.420;10.952;2023-01-29T11:55:06;101643.69;;;7.24;58.58
23427;BME280;41148;45.420;10.952;2023-01-29T11:57:41;101638.34;;;7.10;57.34
23427;BME280;41148;45.420;10.952;2023-01-29T12:00:20;101634.81;;;6.99;58.61
23427;BME280;41148;45.420;10.952;2023-01-29T12:03:03;101644.53;;;7.06;58.55
23427;BME280;41148;45.420;10.952;2023-01-29T12:05:33;101633.03;;;7.00;58.51
23427;BME280;41148;45.420;10.952;2023-01-29T12:08:01;101632.16;;;7.10;58.67
23427;BME280;41148;45.420;10.952;2023-01-29T12:10:39;101636.59;;;7.23;59.25
23427;BME280;41148;45.420;10.952;2023-01-29T12:15:47;101632.19;;;7.28;58.01
23427;BME280;41148;45.420;10.952;2023-01-29T12:18:52;101624.22;;;7.33;57.56
23427;BME280;41148;45.420;10.952;2023-01-29T12:21:29;101621.59;;;7.27;57.99
23427;BME280;41148;45.420;10.952;2023-01-29T12:24:05;101623.34;;;7.28;57.90
23427;BME280;41148;45.420;10.952;2023-01-29T12:26:48;101618.94;;;7.37;57.61
23427;BME280;41148;45.420;10.952;2023-01-29T12:29:32;101623.34;;;7.29;57.98
23427;BME280;41148;45.420;10.952;2023-01-29T12:35:25;101599.47;;;6.97;58.67
23427;BME280;41148;45.420;10.952;2023-01-29T12:43:14;101590.66;;;7.10;58.57
23427;BME280;41148;45.420;10.952;2023-01-29T12:45:44;101601.25;;;7.13;55.66
23427;BME280;41148;45.420;10.952;2023-01-29T12:48:20;101599.50;;;7.18;54.93
23427;BME280;41148;45.420;10.952;2023-01-29T12:50:51;101591.53;;;7.32;55.35
23427;BME280;41148;45.420;10.952;2023-01-29T12:53:48;101599.47;;;7.52;55.13
23427;BME280;41148;45.420;10.952;2023-01-29T12:56:25;101599.47;;;7.58;53.96
23427;BME280;41148;45.420;10.952;2023-01-29T12:58:56;101584.44;;;7.42;54.42
23427;BME280;41148;45.420;10.952;2023-01-29T13:01:33;101587.09;;;7.51;54.09
23427;BME280;41148;45.420;10.952;2023-01-29T13:04:10;101582.69;;;7.49;53.78
23427;BME280;41148;45.420;10.952;2023-01-29T13:06:48;101573.81;;;7.60;52.79
23427;BME280;41148;45.420;10.952;2023-01-29T13:09:24;101573.81;;;7.53;53.71
23427;BME280;41148;45.420;10.952;2023-01-29T13:11:57;101574.75;;;7.44;54.54
23427;BME280;41148;45.420;10.952;2023-01-29T13:14:31;101580.91;;;7.63;53.44
23427;BME280;41148;45.420;10.952;2023-01-29T13:17:08;101564.97;;;7.60;53.73
23427;BME280;41148;45.420;10.952;2023-01-29T13:19:39;101550.84;;;7.59;54.05
23427;BME280;41148;45.420;10.952;2023-01-29T13:22:17;101552.59;;;7.69;53.93
23427;BME280;41148;45.420;10.952;2023-01-29T13:24:46;101551.69;;;7.78;54.11
23427;BME280;41148;45.420;10.952;2023-01-29T13:27:32;101540.22;;;7.68;54.17
23427;BME280;41148;45.420;10.952;2023-01-29T13:30:00;101538.44;;;7.73;54.52
23427;BME280;41148;45.420;10.952;2023-01-29T13:32:29;101537.53;;;7.82;54.00
23427;BME280;41148;45.420;10.952;2023-01-29T13:34:59;101547.28;;;7.69;54.06
23427;BME280;41148;45.420;10.952;2023-01-29T13:37:39;101542.88;;;7.68;54.68
23427;BME280;41148;45.420;10.952;2023-01-29T13:40:19;101548.19;;;7.61;54.69
23427;BME280;41148;45.420;10.952;2023-01-29T13:42:49;101545.53;;;7.62;55.39
23427;BME280;41148;45.420;10.952;2023-01-29T13:45:26;101541.09;;;7.77;55.42
23427;BME280;41148;45.420;10.952;2023-01-29T13:50:50;101538.47;;;7.64;55.35
23427;BME280;41148;45.420;10.952;2023-01-29T13:53:22;101536.72;;;7.53;55.60
23427;BME280;41148;45.420;10.952;2023-01-29T13:55:50;101536.75;;;7.46;55.87
23427;BME280;41148;45.420;10.952;2023-01-29T14:00:58;101528.72;;;7.68;55.87
23427;BME280;41148;45.420;10.952;2023-01-29T14:06:35;101534.06;;;7.42;55.76
23427;BME280;41148;45.420;10.952;2023-01-29T14:12:00;101528.75;;;7.56;55.44
23427;BME280;41148;45.420;10.952;2023-01-29T14:17:15;101535.84;;;7.57;54.58
23427;BME280;41148;45.420;10.952;2023-01-29T14:19:51;101526.97;;;7.64;55.10
23427;BME280;41148;45.420;10.952;2023-01-29T14:22:21;101519.91;;;7.64;54.24
23427;BME280;41148;45.420;10.952;2023-01-29T14:24:54;101512.84;;;7.51;54.35
23427;BME280;41148;45.420;10.952;2023-01-29T14:27:24;101514.56;;;7.69;54.36
23427;BME280;41148;45.420;10.952;2023-01-29T14:29:58;101519.94;;;7.38;54.60
23427;BME280;41148;45.420;10.952;2023-01-29T14:32:27;101509.34;;;7.46;54.68
23427;BME280;41148;45.420;10.952;2023-01-29T14:35:27;101511.09;;;7.50;55.01
23427;BME280;41148;45.420;10.952;2023-01-29T14:38:00;101514.63;;;7.49;54.66
23427;BME280;41148;45.420;10.952;2023-01-29T14:40:29;101523.44;;;7.59;54.49
23427;BME280;41148;45.420;10.952;2023-01-29T14:43:01;101514.66;;;7.38;55.39
23427;BME280;41148;45.420;10.952;2023-01-29T14:48:03;101521.69;;;7.49;55.23
23427;BME280;41148;45.420;10.952;2023-01-29T14:53:19;101515.53;;;7.40;55.55
23427;BME280;41148;45.420;10.952;2023-01-29T14:55:51;101521.69;;;7.42;55.60
23427;BME280;41148;45.420;10.952;2023-01-29T14:59:11;101519.06;;;7.42;55.65
23427;BME280;41148;45.420;10.952;2023-01-29T15:01:16;101526.13;;;7.42;55.54
23427;BME280;41148;45.420;10.952;2023-01-29T15:03:48;101525.28;;;7.34;55.96
23427;BME280;41148;45.420;10.952;2023-01-29T15:06:22;101520.88;;;7.25;56.35
23427;BME280;41148;45.420;10.952;2023-01-29T15:08:58;101527.94;;;7.09;56.99
23427;BME280;41148;45.420;10.952;2023-01-29T15:12:31;101517.31;;;7.14;57.08
23427;BME280;41148;45.420;10.952;2023-01-29T15:14:47;101524.41;;;7.20;57.45